Time;durP1;ratioP1;P1;durP2;ratioP2;P2;SDS_P1;SDS_P2;PMS_P1;PMS_P2;Temp;Humidity;BMP_temperature;BMP_pressure;BME280_temperature;BME280_humidity;BME280_pressure;Samples;Min_cycle;Max_cycle;Signal;HPM_P1;HPM_P2
2021/09/28 00:01:35;;;;;;;1.90;1.60;;;16.70;99.90;;;;;;5026596;28;20184;-67
2021/09/28 00:04:01;;;;;;;1.67;1.40;;;16.70;99.90;;;;;;5029818;28;20180;-68
2021/09/28 00:06:26;;;;;;;2.13;1.90;;;16.70;99.90;;;;;;5025610;28;20192;-68
2021/09/28 00:08:52;;;;;;;2.30;1.77;;;16.60;99.90;;;;;;5028815;28;20185;-67
2021/09/28 00:11:17;;;;;;;2.80;1.90;;;16.70;99.90;;;;;;5008167;28;20193;-67
2021/09/28 00:13:43;;;;;;;2.53;1.60;;;16.70;99.90;;;;;;5024635;28;20671;-67
2021/09/28 00:16:09;;;;;;;3.00;1.73;;;16.70;99.90;;;;;;5025745;28;20728;-67
2021/09/28 00:18:35;;;;;;;4.20;1.80;;;16.80;99.90;;;;;;5022816;28;20262;-67
2021/09/28 00:21:00;;;;;;;2.10;1.77;;;17.00;99.90;;;;;;4992842;28;20559;-67
2021/09/28 00:23:26;;;;;;;2.40;1.70;;;16.90;99.90;;;;;;4999618;28;20421;-69
2021/09/28 00:25:52;;;;;;;2.53;1.70;;;16.90;99.90;;;;;;5022883;28;20189;-68
2021/09/28 00:28:31;;;;;;;2.50;1.70;;;16.80;99.90;;;;;;5027058;28;20764;-68
2021/09/28 00:30:57;;;;;;;4.03;1.60;;;16.70;99.90;;;;;;5026940;28;20183;-64
2021/09/28 00:33:25;;;;;;;3.20;2.07;;;16.70;99.90;;;;;;5020645;28;20447;-64
2021/09/28 00:35:51;;;;;;;2.87;1.90;;;16.70;99.90;;;;;;5027889;28;20203;-67
2021/09/28 00:38:16;;;;;;;2.07;1.70;;;16.70;99.90;;;;;;5025765;28;20467;-67
2021/09/28 00:40:42;;;;;;;1.93;1.60;;;16.70;99.90;;;;;;5025121;28;20274;-66
2021/09/28 00:43:08;;;;;;;3.43;1.90;;;16.60;99.90;;;;;;5010080;28;20624;-68
2021/09/28 00:45:34;;;;;;;3.43;1.70;;;16.50;99.90;;;;;;5024308;28;20473;-69
2021/09/28 00:47:59;;;;;;;4.63;2.30;;;16.50;99.90;;;;;;5026516;28;20215;-70
2021/09/28 00:50:26;;;;;;;2.37;1.90;;;16.40;99.90;;;;;;5025753;28;20415;-70
2021/09/28 00:52:54;;;;;;;42.00;3.10;;;16.30;99.90;;;;;;5006527;28;20200;-70
2021/09/28 00:55:27;;;;;;;2.30;2.10;;;16.30;99.90;;;;;;5027345;28;20419;-70
2021/09/28 00:57:56;;;;;;;1.93;1.60;;;16.30;99.90;;;;;;5011204;28;20461;-66
2021/09/28 01:00:22;;;;;;;4.53;2.47;;;16.20;99.90;;;;;;5026379;28;20819;-65
2021/09/28 01:02:47;;;;;;;4.13;1.60;;;16.20;99.90;;;;;;5024505;28;20811;-66
2021/09/28 01:05:14;;;;;;;3.10;2.33;;;16.10;99.90;;;;;;5004470;28;20192;-66
2021/09/28 01:07:42;;;;;;;3.93;2.00;;;16.00;99.90;;;;;;5005671;28;20775;-64
2021/09/28 01:10:09;;;;;;;2.10;1.90;;;16.00;99.90;;;;;;5026206;28;20538;-68
2021/09/28 01:12:35;;;;;;;3.73;1.70;;;15.90;99.90;;;;;;5006951;28;20670;-65
2021/09/28 01:15:00;;;;;;;7.90;1.97;;;15.90;99.90;;;;;;5027440;28;20435;-68
2021/09/28 01:17:26;;;;;;;2.73;2.00;;;15.90;99.90;;;;;;5024104;28;20557;-68
2021/09/28 01:19:52;;;;;;;3.40;1.70;;;15.90;99.90;;;;;;5022904;28;20655;-68
2021/09/28 01:22:19;;;;;;;3.33;1.80;;;15.90;99.90;;;;;;5026555;28;20414;-69
2021/09/28 01:24:47;;;;;;;3.90;1.70;;;15.90;99.90;;;;;;5024117;28;20279;-68
2021/09/28 01:27:14;;;;;;;2.80;2.00;;;15.80;99.90;;;;;;5007256;28;20474;-68
2021/09/28 01:29:40;;;;;;;2.20;2.00;;;15.80;99.90;;;;;;5024288;28;20439;-68
2021/09/28 01:32:07;;;;;;;3.03;1.77;;;15.80;99.90;;;;;;5022646;28;20427;-69
2021/09/28 01:34:32;;;;;;;3.10;1.57;;;15.70;99.90;;;;;;5024995;28;20434;-68
2021/09/28 01:36:58;;;;;;;3.50;1.87;;;15.80;99.90;;;;;;5024659;28;20528;-67
2021/09/28 01:39:24;;;;;;;2.27;1.80;;;15.80;99.90;;;;;;5006111;28;20703;-67
2021/09/28 01:41:50;;;;;;;5.90;2.00;;;15.80;99.90;;;;;;5026728;28;20259;-68
2021/09/28 01:44:18;;;;;;;4.37;2.27;;;15.80;99.90;;;;;;5008726;28;20569;-68
2021/09/28 01:46:47;;;;;;;3.50;2.00;;;15.70;99.90;;;;;;5021929;28;20813;-68
2021/09/28 01:49:14;;;;;;;4.13;2.20;;;15.70;99.90;;;;;;5008832;28;20769;-69
2021/09/28 01:51:41;;;;;;;5.77;2.27;;;15.80;99.90;;;;;;5020854;28;20493;-68
2021/09/28 01:54:08;;;;;;;2.23;1.93;;;15.70;99.90;;;;;;5025842;28;20442;-69
2021/09/28 01:56:35;;;;;;;4.93;2.10;;;15.60;99.90;;;;;;5023413;28;20778;-69
2021/09/28 01:59:02;;;;;;;6.10;2.00;;;15.60;99.90;;;;;;5019144;28;20502;-69
2021/09/28 02:01:28;;;;;;;5.60;2.50;;;15.70;99.90;;;;;;5025419;28;20407;-68
2021/09/28 02:03:54;;;;;;;3.00;1.73;;;15.60;99.90;;;;;;5019947;28;20416;-68
2021/09/28 02:06:24;;;;;;;7.80;1.97;;;15.60;99.90;;;;;;5019876;28;20473;-67
2021/09/28 02:08:50;;;;;;;2.17;1.97;;;15.50;99.90;;;;;;5025285;28;20220;-67
2021/09/28 02:11:16;;;;;;;4.60;2.53;;;15.60;99.90;;;;;;5021902;28;20504;-68
2021/09/28 02:13:42;;;;;;;2.97;2.13;;;15.80;99.90;;;;;;5022371;28;21013;-68
2021/09/28 02:16:08;;;;;;;7.10;2.80;;;15.70;99.90;;;;;;5007040;28;20275;-68
2021/09/28 02:18:34;;;;;;;4.83;2.10;;;15.60;99.90;;;;;;5023537;28;20473;-65
2021/09/28 02:21:00;;;;;;;5.73;2.50;;;15.50;99.90;;;;;;5025553;28;20423;-64
2021/09/28 02:23:26;;;;;;;2.80;2.30;;;15.40;99.90;;;;;;5022212;28;20267;-64
2021/09/28 02:25:52;;;;;;;3.10;2.03;;;15.40;99.90;;;;;;5020422;28;20912;-65
2021/09/28 02:28:18;;;;;;;4.60;2.20;;;15.50;99.90;;;;;;5024299;28;20215;-65
2021/09/28 02:30:43;;;;;;;5.50;2.53;;;15.40;99.90;;;;;;5020664;28;20431;-64
2021/09/28 02:33:09;;;;;;;5.60;2.50;;;15.40;99.90;;;;;;5022327;28;20250;-65
2021/09/28 02:35:34;;;;;;;5.43;2.40;;;15.50;99.90;;;;;;5024146;28;20188;-65
2021/09/28 02:38:00;;;;;;;2.83;2.63;;;15.50;99.90;;;;;;5021925;28;20204;-64
2021/09/28 02:40:29;;;;;;;3.67;2.70;;;15.30;99.90;;;;;;5007582;28;20184;-65
2021/09/28 02:42:55;;;;;;;7.07;2.60;;;15.30;99.90;;;;;;5021259;28;20709;-65
2021/09/28 02:45:21;;;;;;;3.40;2.50;;;15.20;99.90;;;;;;5025079;28;20432;-65
2021/09/28 02:47:47;;;;;;;5.10;2.97;;;15.30;99.90;;;;;;5024452;28;20263;-64
2021/09/28 02:50:13;;;;;;;7.30;2.63;;;15.10;99.90;;;;;;5022152;28;20724;-67
2021/09/28 02:52:38;;;;;;;4.57;2.90;;;15.00;99.90;;;;;;5024519;28;20427;-67
2021/09/28 02:55:06;;;;;;;3.93;2.13;;;15.00;99.90;;;;;;5003409;28;20721;-67
2021/09/28 02:57:31;;;;;;;4.23;2.53;;;15.00;99.90;;;;;;5021455;28;20216;-68
2021/09/28 02:59:57;;;;;;;3.70;2.47;;;15.00;99.90;;;;;;5026167;28;20926;-67
2021/09/28 03:02:23;;;;;;;3.83;2.60;;;14.90;99.90;;;;;;5021177;28;20295;-67
2021/09/28 03:04:49;;;;;;;4.37;2.40;;;14.90;99.90;;;;;;5020795;28;20188;-68
2021/09/28 03:07:14;;;;;;;6.50;2.77;;;14.80;99.90;;;;;;5125456;22;20604;-69
2021/09/28 03:09:40;;;;;;;3.37;2.43;;;14.90;99.90;;;;;;5023842;28;20195;-69
2021/09/28 03:12:07;;;;;;;3.40;2.70;;;14.90;99.90;;;;;;5006153;28;20423;-70
2021/09/28 03:14:32;;;;;;;3.57;2.60;;;14.80;99.90;;;;;;5022816;28;20541;-71
2021/09/28 03:16:58;;;;;;;6.40;3.23;;;14.90;99.90;;;;;;5009821;28;20486;-69
2021/09/28 03:19:24;;;;;;;6.03;3.10;;;14.90;99.90;;;;;;5003289;28;20249;-70
2021/09/28 03:21:50;;;;;;;6.10;2.70;;;14.90;99.90;;;;;;5002917;28;20228;-70
2021/09/28 03:24:17;;;;;;;6.87;3.00;;;14.90;99.90;;;;;;4983284;28;20436;-71
2021/09/28 03:26:43;;;;;;;5.00;3.53;;;14.90;99.90;;;;;;4990431;28;20439;-70
2021/09/28 03:29:08;;;;;;;5.83;3.30;;;15.10;99.90;;;;;;5006783;28;20439;-72
2021/09/28 03:31:34;;;;;;;7.53;3.33;;;15.10;99.90;;;;;;5007638;28;20665;-71
2021/09/28 03:34:00;;;;;;;5.07;3.50;;;14.80;99.90;;;;;;5006390;28;20189;-71
2021/09/28 03:36:26;;;;;;;5.20;3.00;;;14.90;99.90;;;;;;5004485;28;20213;-71
2021/09/28 03:38:52;;;;;;;3.57;2.80;;;15.00;99.90;;;;;;5008890;28;20212;-70
2021/09/28 03:41:17;;;;;;;4.63;3.20;;;15.00;99.90;;;;;;4989687;28;20455;-70
2021/09/28 03:43:43;;;;;;;3.20;2.90;;;14.80;99.90;;;;;;5008597;28;20200;-70
2021/09/28 03:46:09;;;;;;;4.97;3.17;;;14.70;99.90;;;;;;5006763;28;20674;-71
2021/09/28 03:48:34;;;;;;;5.37;3.97;;;14.80;99.90;;;;;;5006094;28;20582;-71
2021/09/28 03:51:00;;;;;;;4.00;3.60;;;14.80;99.90;;;;;;5006431;28;20629;-71
2021/09/28 03:53:26;;;;;;;3.83;3.43;;;14.80;99.90;;;;;;5006350;28;20197;-71
2021/09/28 03:55:51;;;;;;;5.80;3.80;;;14.70;99.90;;;;;;5008319;28;20220;-70
2021/09/28 03:58:17;;;;;;;7.10;2.83;;;14.80;99.90;;;;;;5007970;28;20604;-70
2021/09/28 04:00:43;;;;;;;7.87;3.27;;;14.80;99.90;;;;;;5005621;28;20666;-71
2021/09/28 04:03:09;;;;;;;4.30;3.13;;;14.90;99.90;;;;;;5007801;28;20519;-70
2021/09/28 04:05:36;;;;;;;4.13;3.10;;;14.90;99.90;;;;;;5004747;28;20538;-70
2021/09/28 04:08:03;;;;;;;3.80;3.37;;;14.90;99.90;;;;;;5006190;28;20240;-71
2021/09/28 04:10:28;;;;;;;4.60;3.63;;;14.80;99.90;;;;;;5010740;28;20455;-71
2021/09/28 04:12:54;;;;;;;8.50;3.40;;;14.60;99.90;;;;;;5004787;28;20455;-70
2021/09/28 04:15:24;;;;;;;6.53;3.17;;;14.70;99.90;;;;;;5006716;28;20209;-70
2021/09/28 04:17:49;;;;;;;4.37;3.10;;;14.70;99.90;;;;;;4989263;28;20271;-70
2021/09/28 04:20:15;;;;;;;6.37;3.80;;;14.60;99.90;;;;;;5004883;28;20432;-70
2021/09/28 04:22:42;;;;;;;9.90;3.27;;;14.50;99.90;;;;;;5007468;28;20630;-70
2021/09/28 04:25:09;;;;;;;3.40;2.87;;;14.70;99.90;;;;;;5005114;28;20184;-72
2021/09/28 04:27:36;;;;;;;6.87;3.37;;;14.80;99.90;;;;;;5002543;28;20460;-71
2021/09/28 04:30:03;;;;;;;3.93;3.00;;;14.70;99.90;;;;;;5008872;28;20892;-69
2021/09/28 04:32:28;;;;;;;6.17;3.30;;;14.60;99.90;;;;;;5005577;28;20520;-70
2021/09/28 04:34:54;;;;;;;6.00;3.40;;;14.60;99.90;;;;;;5005549;28;20578;-70
2021/09/28 04:37:20;;;;;;;10.70;3.40;;;14.50;99.90;;;;;;5005102;28;20696;-70
2021/09/28 04:39:45;;;;;;;13.87;4.10;;;14.50;99.90;;;;;;5005989;28;20193;-71
2021/09/28 04:42:11;;;;;;;7.50;4.70;;;14.70;99.90;;;;;;5007368;28;20193;-70
2021/09/28 04:44:37;;;;;;;5.57;4.10;;;14.60;99.90;;;;;;5006171;28;20181;-70
2021/09/28 04:47:02;;;;;;;4.87;3.50;;;14.60;99.90;;;;;;5004658;28;20205;-70
2021/09/28 04:49:28;;;;;;;7.33;3.67;;;14.50;99.90;;;;;;5008463;28;20196;-70
2021/09/28 04:51:54;;;;;;;5.63;3.60;;;14.60;99.90;;;;;;5006267;28;20193;-69
2021/09/28 04:54:19;;;;;;;16.20;3.93;;;14.50;99.90;;;;;;5004429;28;20213;-70
2021/09/28 04:56:45;;;;;;;7.30;3.47;;;14.50;99.90;;;;;;5006265;28;20680;-69
2021/09/28 04:59:10;;;;;;;5.27;3.80;;;14.70;99.90;;;;;;5000421;28;20193;-69
2021/09/28 05:01:36;;;;;;;5.73;4.03;;;14.60;99.90;;;;;;5005951;28;20189;-69
2021/09/28 05:04:02;;;;;;;6.07;3.77;;;14.50;99.90;;;;;;5005612;28;20687;-70
2021/09/28 05:06:27;;;;;;;6.97;4.63;;;14.50;99.90;;;;;;5005132;28;20285;-70
2021/09/28 05:08:53;;;;;;;5.20;3.70;;;14.50;99.90;;;;;;5005329;28;20268;-70
2021/09/28 05:11:19;;;;;;;7.40;4.90;;;14.50;99.90;;;;;;5005877;28;20189;-71
2021/09/28 05:13:44;;;;;;;11.00;5.23;;;14.50;99.90;;;;;;5004757;28;20217;-71
2021/09/28 05:16:10;;;;;;;9.43;4.83;;;14.40;99.90;;;;;;5006834;28;20288;-70
2021/09/28 05:18:36;;;;;;;4.93;3.60;;;14.40;99.90;;;;;;5007131;28;20216;-70
2021/09/28 05:21:01;;;;;;;7.27;3.93;;;14.40;99.90;;;;;;5008957;28;20189;-70
2021/09/28 05:23:28;;;;;;;7.97;4.37;;;14.40;99.90;;;;;;5004119;28;20197;-70
2021/09/28 05:25:54;;;;;;;11.33;4.57;;;14.30;99.90;;;;;;5005350;28;20205;-71
2021/09/28 05:28:19;;;;;;;9.33;4.53;;;14.20;99.90;;;;;;5007174;28;20438;-69
2021/09/28 05:30:46;;;;;;;6.57;5.07;;;14.20;99.90;;;;;;5003298;28;20189;-70
2021/09/28 05:33:12;;;;;;;5.47;4.43;;;14.20;99.90;;;;;;5006852;28;20193;-71
2021/09/28 05:35:38;;;;;;;5.83;4.30;;;14.10;99.90;;;;;;5008326;28;20941;-71
2021/09/28 05:38:04;;;;;;;6.50;3.93;;;14.30;99.90;;;;;;5007067;28;20242;-71
2021/09/28 05:40:30;;;;;;;8.80;4.97;;;14.40;99.90;;;;;;4987138;28;20578;-71
2021/09/28 05:42:55;;;;;;;5.43;3.77;;;14.50;99.90;;;;;;5005024;28;20416;-70
2021/09/28 05:45:21;;;;;;;4.67;4.07;;;14.60;99.90;;;;;;4986713;28;20318;-69
2021/09/28 05:47:48;;;;;;;9.40;4.03;;;14.50;99.90;;;;;;5005399;28;20336;-70
2021/09/28 05:50:15;;;;;;;5.90;4.13;;;14.50;99.90;;;;;;5004900;28;20223;-69
2021/09/28 05:52:42;;;;;;;8.00;4.43;;;14.50;99.90;;;;;;5001185;28;20433;-70
2021/09/28 05:55:08;;;;;;;7.40;5.10;;;14.60;99.90;;;;;;5006202;28;20958;-71
2021/09/28 05:57:34;;;;;;;6.27;4.43;;;14.60;99.90;;;;;;5002613;28;20483;-71
2021/09/28 05:59:59;;;;;;;7.47;4.37;;;14.60;99.90;;;;;;5005239;28;20965;-70
2021/09/28 06:02:25;;;;;;;14.93;5.70;;;14.50;99.90;;;;;;5007571;28;20177;-70
2021/09/28 06:04:51;;;;;;;5.90;4.93;;;14.50;99.90;;;;;;5002070;28;20668;-70
2021/09/28 06:07:18;;;;;;;9.00;4.97;;;14.60;99.90;;;;;;5006810;28;20209;-70
2021/09/28 06:09:44;;;;;;;6.80;4.77;;;14.50;99.90;;;;;;5004339;28;20268;-71
2021/09/28 06:12:11;;;;;;;6.80;4.87;;;14.70;99.90;;;;;;5004807;28;20436;-69
2021/09/28 06:14:38;;;;;;;8.80;5.33;;;14.70;99.90;;;;;;5005653;28;20432;-71
2021/09/28 06:17:04;;;;;;;8.50;5.00;;;14.60;99.90;;;;;;5004214;28;20963;-70
2021/09/28 06:19:30;;;;;;;9.73;4.37;;;14.70;99.90;;;;;;5003924;28;20440;-71
2021/09/28 06:21:56;;;;;;;4.77;4.37;;;14.90;99.90;;;;;;5004780;28;20239;-71
2021/09/28 06:24:22;;;;;;;6.60;4.50;;;15.00;99.90;;;;;;5001705;28;20197;-69
2021/09/28 06:26:49;;;;;;;10.70;4.87;;;14.90;99.90;;;;;;5003421;28;20468;-69
2021/09/28 06:29:15;;;;;;;6.90;4.17;;;14.90;99.90;;;;;;5004748;28;20439;-71
2021/09/28 06:31:42;;;;;;;6.27;4.67;;;14.80;99.90;;;;;;5000543;28;20441;-70
2021/09/28 06:34:09;;;;;;;11.77;5.57;;;14.80;99.90;;;;;;5002160;28;20444;-71
2021/09/28 06:36:35;;;;;;;8.60;4.73;;;14.90;99.90;;;;;;5003154;28;20452;-71
2021/09/28 06:39:01;;;;;;;10.50;5.47;;;14.80;99.90;;;;;;5001749;28;20549;-71
2021/09/28 06:41:27;;;;;;;8.30;4.40;;;14.90;99.90;;;;;;5004931;28;20436;-72
2021/09/28 06:43:54;;;;;;;8.90;5.33;;;14.90;99.90;;;;;;5001830;28;20463;-71
2021/09/28 06:46:21;;;;;;;9.30;4.13;;;14.90;99.90;;;;;;5001316;28;20355;-70
2021/09/28 06:48:46;;;;;;;5.67;4.53;;;15.00;99.90;;;;;;4999435;28;20516;-70
2021/09/28 06:51:12;;;;;;;11.33;5.27;;;15.00;99.90;;;;;;4999143;28;20685;-69
2021/09/28 06:53:38;;;;;;;8.63;4.57;;;15.00;99.90;;;;;;5005328;28;20248;-69
2021/09/28 06:56:04;;;;;;;5.07;4.43;;;14.90;99.90;;;;;;5001931;28;20213;-70
2021/09/28 06:58:30;;;;;;;5.40;4.63;;;15.10;99.90;;;;;;5002788;28;20638;-70
2021/09/28 07:00:56;;;;;;;6.50;4.60;;;15.00;99.90;;;;;;5007190;28;20440;-70
2021/09/28 07:03:21;;;;;;;8.80;4.50;;;15.10;99.90;;;;;;4988698;28;20201;-70
2021/09/28 07:05:48;;;;;;;8.13;4.47;;;14.90;99.90;;;;;;5008349;28;20307;-70
2021/09/28 07:08:15;;;;;;;10.10;5.07;;;15.00;99.90;;;;;;5007447;28;20232;-70
2021/09/28 07:10:41;;;;;;;7.53;4.63;;;15.10;99.90;;;;;;5006991;28;20900;-71
2021/09/28 07:13:07;;;;;;;7.33;4.90;;;15.20;99.90;;;;;;5011203;28;20454;-70
2021/09/28 07:15:33;;;;;;;6.53;5.03;;;15.10;99.90;;;;;;5006493;28;20718;-70
2021/09/28 07:17:59;;;;;;;5.43;4.63;;;15.20;99.90;;;;;;5006540;28;20463;-70
2021/09/28 07:20:25;;;;;;;5.53;3.97;;;15.10;99.90;;;;;;5008232;28;20541;-71
2021/09/28 07:22:51;;;;;;;6.97;4.27;;;15.20;99.90;;;;;;5004204;28;20227;-70
2021/09/28 07:25:16;;;;;;;11.37;4.93;;;15.20;99.90;;;;;;5009894;28;20463;-70
2021/09/28 07:27:42;;;;;;;7.60;5.50;;;15.30;99.90;;;;;;5003248;28;20212;-69
2021/09/28 07:30:09;;;;;;;11.30;5.17;;;15.20;99.90;;;;;;5007074;28;20201;-71
2021/09/28 07:32:34;;;;;;;8.90;4.63;;;15.00;99.90;;;;;;5009219;28;20194;-70
2021/09/28 07:35:00;;;;;;;8.30;5.17;;;15.20;99.90;;;;;;5003841;28;20443;-71
2021/09/28 07:37:29;;;;;;;10.80;5.07;;;15.40;99.90;;;;;;4989276;28;20248;-70
2021/09/28 07:39:57;;;;;;;9.77;5.10;;;15.60;99.90;;;;;;5008913;28;20193;-70
2021/09/28 07:42:24;;;;;;;5.80;4.70;;;15.50;99.90;;;;;;5006553;28;20529;-70
2021/09/28 07:45:00;;;;;;;7.60;4.03;;;15.50;99.90;;;;;;5008561;28;20448;-70
2021/09/28 07:47:26;;;;;;;7.80;4.70;;;15.40;99.90;;;;;;5006507;28;20462;-71
2021/09/28 07:49:52;;;;;;;9.60;4.67;;;15.40;99.90;;;;;;5003257;28;20421;-71
2021/09/28 07:52:17;;;;;;;8.40;4.20;;;15.40;99.90;;;;;;5009216;28;20205;-70
2021/09/28 07:54:43;;;;;;;7.93;4.53;;;15.40;99.90;;;;;;4988355;28;20193;-70
2021/09/28 07:57:09;;;;;;;6.93;4.43;;;15.50;99.90;;;;;;4988596;28;20598;-70
2021/09/28 07:59:35;;;;;;;5.20;4.37;;;15.50;99.90;;;;;;5007440;28;20569;-71
2021/09/28 08:02:03;;;;;;;7.13;4.70;;;15.40;99.90;;;;;;5005169;28;20192;-71
2021/09/28 08:04:29;;;;;;;6.20;4.13;;;15.30;99.90;;;;;;5005286;28;20436;-71
2021/09/28 08:06:55;;;;;;;7.83;4.77;;;15.60;99.90;;;;;;5008334;28;20459;-71
2021/09/28 08:09:21;;;;;;;5.13;4.20;;;15.70;99.90;;;;;;5004591;28;20731;-70
2021/09/28 08:11:47;;;;;;;5.67;4.90;;;15.70;99.90;;;;;;5005880;28;20189;-69
2021/09/28 08:14:13;;;;;;;6.27;4.20;;;15.80;99.90;;;;;;5005811;28;20936;-69
2021/09/28 08:16:38;;;;;;;5.90;4.10;;;15.80;99.90;;;;;;5004950;28;20451;-70
2021/09/28 08:19:05;;;;;;;13.30;7.70;;;15.80;99.90;;;;;;4989676;28;20518;-70
2021/09/28 08:21:31;;;;;;;7.20;4.23;;;15.90;99.90;;;;;;5005483;28;20277;-70
2021/09/28 08:23:56;;;;;;;11.70;4.50;;;15.90;99.90;;;;;;5008517;28;20436;-70
2021/09/28 08:29:09;;;;;;;7.40;3.60;;;16.00;99.90;;;;;;5006271;28;20196;-70
2021/09/28 08:31:42;;;;;;;6.20;5.50;;;16.00;99.90;;;;;;5006023;28;20459;-70
2021/09/28 08:34:09;;;;;;;9.63;6.10;;;15.90;99.90;;;;;;5006541;28;20420;-71
2021/09/28 08:36:36;;;;;;;11.50;6.67;;;15.80;99.90;;;;;;5003322;28;20448;-69
2021/09/28 08:39:04;;;;;;;14.03;7.87;;;15.80;99.90;;;;;;5008257;28;20848;-70
2021/09/28 08:41:30;;;;;;;7.90;5.40;;;15.80;99.90;;;;;;5004976;28;20444;-70
2021/09/28 08:43:56;;;;;;;13.87;7.37;;;16.00;99.90;;;;;;5005576;28;20459;-70
2021/09/28 08:46:21;;;;;;;8.23;5.20;;;16.00;99.90;;;;;;5005052;28;20213;-71
2021/09/28 08:48:48;;;;;;;9.67;6.43;;;16.30;99.90;;;;;;5005001;28;20656;-69
2021/09/28 08:51:15;;;;;;;9.00;5.70;;;16.40;99.90;;;;;;5003724;28;20570;-71
2021/09/28 08:53:41;;;;;;;7.77;4.93;;;16.30;99.90;;;;;;5009469;28;20424;-71
2021/09/28 08:56:11;;;;;;;10.10;4.87;;;16.30;99.90;;;;;;5002242;28;20447;-71
2021/09/28 08:58:59;;;;;;;11.83;4.80;;;16.40;99.90;;;;;;5006849;28;21032;-71
2021/09/28 09:01:25;;;;;;;8.13;4.37;;;16.40;99.90;;;;;;5006387;28;20773;-71
2021/09/28 09:03:51;;;;;;;10.70;4.27;;;16.30;99.90;;;;;;5006984;28;20420;-71
2021/09/28 09:06:17;;;;;;;9.37;3.93;;;16.50;99.90;;;;;;5007732;28;20466;-71
2021/09/28 09:08:48;;;;;;;11.67;4.57;;;16.60;99.90;;;;;;5005781;28;20741;-71
2021/09/28 09:11:15;;;;;;;8.87;4.30;;;16.70;99.90;;;;;;5001332;28;20495;-75
2021/09/28 09:13:46;;;;;;;6.63;3.80;;;16.90;99.90;;;;;;5005467;28;20541;-71
2021/09/28 09:16:14;;;;;;;7.13;3.60;;;16.90;99.90;;;;;;5004977;28;20467;-71
2021/09/28 09:18:50;;;;;;;4.80;3.83;;;17.00;99.90;;;;;;5006095;28;20475;-71
2021/09/28 09:21:15;;;;;;;4.93;3.97;;;17.10;99.90;;;;;;5008239;28;20511;-70
2021/09/28 09:23:51;;;;;;;4.63;4.10;;;17.10;99.90;;;;;;4982785;28;20536;-71
2021/09/28 09:26:26;;;;;;;5.50;4.20;;;16.90;99.90;;;;;;5006496;28;20208;-71
2021/09/28 09:28:54;;;;;;;8.93;3.53;;;17.00;99.90;;;;;;5005299;28;20474;-71
2021/09/28 09:31:29;;;;;;;8.13;3.70;;;17.10;99.90;;;;;;5005654;28;20727;-72
2021/09/28 09:34:19;;;;;;;7.60;3.00;;;17.40;99.90;;;;;;5006253;28;20814;-70
2021/09/28 09:36:59;;;;;;;7.30;3.53;;;17.70;99.90;;;;;;5006034;28;20436;-71
2021/09/28 09:39:42;;;;;;;4.23;3.50;;;17.80;99.90;;;;;;5004499;28;21141;-70
2021/09/28 09:42:08;;;;;;;7.60;3.87;;;17.70;99.90;;;;;;5003539;28;20535;-70
2021/09/28 09:44:35;;;;;;;8.43;4.27;;;17.90;99.90;;;;;;5007609;28;20508;-70
2021/09/28 09:47:01;;;;;;;15.53;4.43;;;18.00;99.90;;;;;;5001447;28;20722;-71
2021/09/28 09:49:30;;;;;;;11.60;3.90;;;18.00;99.90;;;;;;5005997;28;20428;-69
2021/09/28 09:52:03;;;;;;;4.83;3.97;;;18.20;99.90;;;;;;5002788;28;20189;-70
2021/09/28 09:54:47;;;;;;;5.17;3.30;;;18.20;99.90;;;;;;5004388;28;20638;-71
2021/09/28 09:57:13;;;;;;;4.40;3.67;;;18.30;99.90;;;;;;5007009;28;21044;-71
2021/09/28 09:59:40;;;;;;;4.47;3.93;;;18.10;99.90;;;;;;5004620;28;20977;-71
2021/09/28 10:02:07;;;;;;;6.23;4.20;;;18.10;99.90;;;;;;5002970;28;20427;-71
2021/09/28 10:04:33;;;;;;;8.60;3.80;;;18.00;99.90;;;;;;5008255;28;20881;-71
2021/09/28 10:07:02;;;;;;;5.97;3.93;;;18.10;99.90;;;;;;5003015;28;20487;-71
2021/09/28 10:09:34;;;;;;;8.10;4.30;;;18.10;99.90;;;;;;5005021;28;20786;-71
2021/09/28 10:12:04;;;;;;;11.00;4.37;;;18.10;99.90;;;;;;5007204;28;20847;-70
2021/09/28 10:14:31;;;;;;;5.40;3.60;;;17.90;99.90;;;;;;5002188;28;20527;-71
2021/09/28 10:17:00;;;;;;;6.40;4.37;;;18.10;99.90;;;;;;4987526;28;20499;-71
2021/09/28 10:19:29;;;;;;;4.43;3.30;;;18.30;99.90;;;;;;5007155;28;20644;-70
2021/09/28 10:21:56;;;;;;;4.80;4.10;;;18.30;99.90;;;;;;5002800;28;20420;-70
2021/09/28 10:24:21;;;;;;;7.00;3.80;;;18.30;99.90;;;;;;5006438;28;20511;-72
2021/09/28 10:27:07;;;;;;;7.80;3.47;;;18.40;99.90;;;;;;5002750;28;20768;-70
2021/09/28 10:29:43;;;;;;;4.13;3.23;;;18.60;99.90;;;;;;5004721;28;20197;-70
2021/09/28 10:32:24;;;;;;;7.80;3.70;;;18.70;99.90;;;;;;5002273;28;20450;-70
2021/09/28 10:35:08;;;;;;;5.07;3.10;;;18.80;99.90;;;;;;5003035;28;20410;-69
2021/09/28 10:37:43;;;;;;;6.77;3.70;;;18.80;99.90;;;;;;5003670;28;20464;-71
2021/09/28 10:40:09;;;;;;;3.30;3.00;;;18.90;99.90;;;;;;5005765;28;20779;-70
2021/09/28 10:42:48;;;;;;;5.63;2.80;;;18.90;99.90;;;;;;5003182;28;20408;-70
2021/09/28 10:45:18;;;;;;;6.97;2.90;;;18.90;99.90;;;;;;5002112;28;20456;-69
2021/09/28 10:47:46;;;;;;;4.03;2.87;;;18.90;99.90;;;;;;5005580;28;20456;-69
2021/09/28 10:50:22;;;;;;;6.00;2.93;;;19.00;99.90;;;;;;5001730;28;20428;-69
2021/09/28 10:52:49;;;;;;;3.90;2.87;;;18.90;99.90;;;;;;5002801;28;20440;-70
2021/09/28 10:55:25;;;;;;;5.03;2.80;;;18.90;99.90;;;;;;5005469;28;20526;-70
2021/09/28 10:58:14;;;;;;;6.13;3.00;;;19.00;99.90;;;;;;5002168;28;20490;-70
2021/09/28 11:00:40;;;;;;;5.50;3.03;;;19.00;99.90;;;;;;5001316;28;20457;-71
2021/09/28 11:03:11;;;;;;;5.60;2.70;;;19.10;99.90;;;;;;5005331;28;20872;-70
2021/09/28 11:05:42;;;;;;;5.63;3.30;;;19.10;99.90;;;;;;5002164;28;20216;-70
2021/09/28 11:08:09;;;;;;;3.97;2.43;;;19.10;99.90;;;;;;5000953;28;20688;-70
2021/09/28 11:10:36;;;;;;;5.60;2.57;;;19.20;99.90;;;;;;5006664;28;20435;-71
2021/09/28 11:13:08;;;;;;;5.17;4.00;;;19.10;99.90;;;;;;5005185;28;20414;-70
2021/09/28 11:15:34;;;;;;;4.43;3.00;;;19.00;99.90;;;;;;5003189;28;20440;-71
2021/09/28 11:18:08;;;;;;;8.23;3.23;;;19.10;99.90;;;;;;5005311;28;20471;-71
2021/09/28 11:20:35;;;;;;;5.07;2.97;;;19.20;99.90;;;;;;5001121;28;20653;-69
2021/09/28 11:23:09;;;;;;;7.40;3.67;;;19.40;99.90;;;;;;5005530;28;20904;-69
2021/09/28 11:25:36;;;;;;;3.33;2.43;;;19.40;99.90;;;;;;5004903;28;20965;-70
2021/09/28 11:28:11;;;;;;;6.07;3.10;;;19.50;99.90;;;;;;5001803;28;20435;-70
2021/09/28 11:30:49;;;;;;;4.13;2.57;;;19.60;99.90;;;;;;5003536;28;20435;-70
2021/09/28 11:33:15;;;;;;;4.77;2.50;;;19.70;99.90;;;;;;5002669;28;20463;-71
2021/09/28 11:36:03;;;;;;;4.90;2.60;;;20.00;99.90;;;;;;5002357;28;20436;-70
2021/09/28 11:38:35;;;;;;;3.63;2.50;;;20.20;99.90;;;;;;5004073;28;20720;-71
2021/09/28 11:41:05;;;;;;;6.77;3.37;;;20.40;99.90;;;;;;5003198;28;20496;-70
2021/09/28 11:43:33;;;;;;;2.93;2.30;;;20.50;99.90;;;;;;5002061;28;20481;-70
2021/09/28 11:46:11;;;;;;;5.57;2.70;;;20.70;99.90;;;;;;5003960;28;20987;-71
2021/09/28 11:48:44;;;;;;;4.47;2.33;;;20.90;99.90;;;;;;5006685;28;20931;-70
2021/09/28 11:51:23;;;;;;;3.93;2.57;;;21.10;99.90;;;;;;5005471;28;20503;-70
2021/09/28 11:53:51;;;;;;;3.30;2.33;;;21.90;99.90;;;;;;5007984;28;20456;-70
2021/09/28 11:56:20;;;;;;;3.70;2.03;;;22.80;99.90;;;;;;5009344;28;20461;-70
2021/09/28 11:58:48;;;;;;;2.73;2.53;;;23.70;99.90;;;;;;5006093;28;20566;-69
2021/09/28 12:01:15;;;;;;;4.20;3.60;;;24.40;99.90;;;;;;5008517;28;20475;-71
2021/09/28 12:09:29;;;;;;;3.93;2.20;;;27.00;99.90;;;;;;5009130;28;20430;-70
2021/09/28 12:12:07;;;;;;;4.33;2.93;;;27.50;99.90;;;;;;4990717;28;20951;-71
2021/09/28 12:14:53;;;;;;;4.67;2.80;;;27.10;99.90;;;;;;5007266;28;20211;-71
2021/09/28 12:17:25;;;;;;;3.90;2.60;;;26.60;99.90;;;;;;5007606;28;20545;-70
2021/09/28 12:19:51;;;;;;;2.80;2.60;;;26.40;99.90;;;;;;5005201;28;20451;-70
2021/09/28 12:22:28;;;;;;;2.93;2.47;;;27.10;98.90;;;;;;5005686;28;20439;-70
2021/09/28 12:24:54;;;;;;;5.97;2.90;;;26.60;97.60;;;;;;5011427;28;20439;-70
2021/09/28 12:27:21;;;;;;;5.83;2.97;;;27.10;97.60;;;;;;5004740;28;20448;-71
2021/09/28 12:29:50;;;;;;;8.77;3.70;;;27.80;95.40;;;;;;5005730;28;20477;-72
2021/09/28 12:32:19;;;;;;;3.73;2.70;;;28.70;95.50;;;;;;5008305;28;20437;-71
2021/09/28 12:34:55;;;;;;;5.93;2.70;;;29.50;93.10;;;;;;5004936;28;20531;-71
2021/09/28 12:37:22;;;;;;;5.00;3.77;;;29.50;92.30;;;;;;5004107;28;20879;-72
2021/09/28 12:40:00;;;;;;;7.07;3.43;;;29.40;91.10;;;;;;5007302;28;20459;-71
2021/09/28 12:42:26;;;;;;;5.87;4.50;;;29.10;90.50;;;;;;5005520;28;20915;-70
2021/09/28 12:45:01;;;;;;;4.20;3.80;;;28.80;88.60;;;;;;5004550;28;20448;-71
2021/09/28 12:47:29;;;;;;;7.10;4.80;;;28.40;89.70;;;;;;5006719;28;20436;-70
2021/09/28 12:49:55;;;;;;;6.73;6.00;;;27.90;89.90;;;;;;5005042;28;20440;-71
2021/09/28 12:52:21;;;;;;;4.63;4.17;;;27.40;90.50;;;;;;5008207;28;20938;-70
2021/09/28 12:54:47;;;;;;;4.90;3.47;;;27.30;90.60;;;;;;5003177;28;20558;-70
2021/09/28 12:57:14;;;;;;;5.00;3.73;;;27.10;90.60;;;;;;5006273;28;20196;-69